Time;durP1;ratioP1;P1;durP2;ratioP2;P2;SDS_P1;SDS_P2;PMS_P1;PMS_P2;Temp;Humidity;BMP_temperature;BMP_pressure;BME280_temperature;BME280_humidity;BME280_pressure;Samples;Min_cycle;Max_cycle;Signal;HPM_P1;HPM_P2
2021/08/29 07:00:15;;;;;;;5.00;4.38;;;;;;;13.06;100.00;98790.56;5998772;23;21622;-73
2021/08/29 07:02:40;;;;;;;6.57;4.13;;;;;;;13.10;100.00;98786.97;4966313;28;20043;-72
2021/08/29 07:05:06;;;;;;;4.80;4.28;;;;;;;13.02;100.00;98784.59;4962411;28;20114;-72
2021/08/29 07:07:32;;;;;;;5.13;3.80;;;;;;;13.24;100.00;98784.00;4954613;28;20122;-72
2021/08/29 07:09:58;;;;;;;4.65;3.72;;;;;;;13.23;100.00;98782.31;4954361;29;20400;-72
2021/08/29 07:12:23;;;;;;;4.20;3.80;;;;;;;13.33;100.00;98783.75;4936135;29;20024;-72
2021/08/29 07:14:48;;;;;;;3.92;3.50;;;;;;;13.39;100.00;98786.16;4935835;29;20031;-75
2021/08/29 07:17:16;;;;;;;6.10;3.38;;;;;;;13.38;100.00;98787.06;4935552;29;20031;-75
2021/08/29 07:19:41;;;;;;;4.80;3.80;;;;;;;13.45;99.54;98782.56;4936639;29;20055;-75
2021/08/29 07:22:07;;;;;;;4.30;3.90;;;;;;;13.61;99.31;98784.66;4954151;28;20058;-75
2021/08/29 07:24:32;;;;;;;3.70;3.40;;;;;;;13.49;97.27;98779.81;4954242;28;20054;-75
2021/08/29 07:26:57;;;;;;;4.72;2.92;;;;;;;13.61;98.08;98774.22;4954308;28;20031;-75
2021/08/29 07:29:23;;;;;;;4.03;3.63;;;;;;;13.58;99.64;98779.50;4954222;28;20082;-75
2021/08/29 07:31:48;;;;;;;3.17;2.97;;;;;;;13.67;97.46;98782.75;4953554;28;20401;-74
2021/08/29 07:34:13;;;;;;;3.15;2.85;;;;;;;13.74;97.65;98779.94;4943078;28;20090;-75
2021/08/29 07:36:39;;;;;;;2.67;2.42;;;;;;;13.57;97.18;98772.63;4935008;29;20478;-75
2021/08/29 07:39:04;;;;;;;2.88;2.40;;;;;;;13.32;98.29;98774.25;4934997;29;20130;-74
2021/08/29 07:41:29;;;;;;;2.67;2.47;;;;;;;13.88;98.97;98779.50;4934642;29;20027;-74
2021/08/29 07:43:54;;;;;;;2.38;2.17;;;;;;;14.20;96.52;98770.63;4934832;29;20031;-74
2021/08/29 07:46:24;;;;;;;2.40;2.20;;;;;;;14.05;94.44;98772.00;4934856;29;20032;-74
2021/08/29 07:48:50;;;;;;;2.42;1.70;;;;;;;14.10;96.29;98777.06;4934925;29;20031;-74
2021/08/29 07:51:15;;;;;;;3.55;2.28;;;;;;;14.20;97.74;98772.41;4948400;28;20130;-75
2021/08/29 07:53:40;;;;;;;2.75;2.53;;;;;;;14.17;96.90;98773.38;4953911;28;20062;-74
2021/08/29 07:56:05;;;;;;;4.47;2.40;;;;;;;14.34;96.83;98775.41;4953845;28;20031;-74
2021/08/29 07:58:31;;;;;;;2.53;1.90;;;;;;;14.20;96.83;98782.81;4953993;28;20468;-77
2021/08/29 08:00:56;;;;;;;4.60;1.80;;;;;;;14.24;96.25;98781.81;4953770;28;20043;-76
2021/08/29 08:03:21;;;;;;;2.78;1.70;;;;;;;14.47;96.09;98781.91;4945644;28;20432;-75
2021/08/29 08:05:47;;;;;;;1.90;1.80;;;;;;;14.58;93.25;98773.75;4938438;28;20495;-74
2021/08/29 08:08:12;;;;;;;2.15;1.60;;;;;;;14.92;91.26;98768.22;4934569;29;20042;-74
2021/08/29 08:10:37;;;;;;;1.50;1.40;;;;;;;15.09;90.79;98776.28;4934611;29;20024;-74
2021/08/29 08:13:03;;;;;;;1.70;1.60;;;;;;;14.75;91.17;98778.41;4934210;29;20469;-74
2021/08/29 08:15:28;;;;;;;1.52;1.42;;;;;;;14.25;93.13;98791.34;4934656;29;20050;-74
2021/08/29 08:17:54;;;;;;;2.47;1.58;;;;;;;14.18;95.49;98792.44;4934509;29;20059;-74
2021/08/29 08:20:19;;;;;;;2.72;2.00;;;;;;;14.29;96.27;98792.94;4940968;28;20106;-74
2021/08/29 08:22:47;;;;;;;1.80;1.45;;;;;;;14.24;94.37;98794.84;4953348;28;20023;-75
2021/08/29 08:25:12;;;;;;;1.75;1.65;;;;;;;14.10;96.47;98795.28;4953620;28;20112;-74
2021/08/29 08:27:38;;;;;;;1.60;1.50;;;;;;;14.11;98.27;98782.19;4953640;28;20082;-74
2021/08/29 08:30:04;;;;;;;4.00;0.90;;;;;;;14.09;94.80;98786.63;4953653;28;20408;-74
2021/08/29 08:32:29;;;;;;;1.92;1.40;;;;;;;13.95;95.99;98788.81;4948061;28;20027;-74
2021/08/29 08:34:55;;;;;;;1.48;1.10;;;;;;;14.08;97.66;98784.94;4942288;29;20042;-74
2021/08/29 08:37:20;;;;;;;0.95;0.95;;;;;;;13.86;94.38;98799.53;4934460;29;20028;-74
2021/08/29 08:39:45;;;;;;;0.88;0.80;;;;;;;14.05;94.06;98787.63;4934366;29;20477;-74
2021/08/29 08:42:11;;;;;;;1.02;1.02;;;;;;;14.05;94.61;98785.00;4934612;29;20031;-74
2021/08/29 08:44:36;;;;;;;0.90;0.90;;;;;;;14.17;94.36;98789.00;4938100;29;20024;-74
2021/08/29 08:47:06;;;;;;;1.02;1.02;;;;;;;14.21;94.44;98782.75;4937973;29;20028;-74
2021/08/29 08:49:34;;;;;;;0.70;0.70;;;;;;;14.26;92.62;98782.59;4938169;29;20043;-74
2021/08/29 08:52:02;;;;;;;1.00;0.90;;;;;;;14.15;91.67;98785.56;4956792;28;20031;-74
2021/08/29 08:54:29;;;;;;;2.47;1.83;;;;;;;14.26;91.74;98782.59;4956914;28;20027;-74
2021/08/29 08:56:56;;;;;;;2.08;1.50;;;;;;;14.47;91.41;98776.69;4957026;28;20110;-74
2021/08/29 08:59:22;;;;;;;1.77;1.60;;;;;;;14.49;91.93;98779.28;4957005;28;20035;-74
2021/08/29 09:01:47;;;;;;;25.95;15.48;;;;;;;14.53;90.97;98768.69;4956568;28;20556;-74
2021/08/29 09:04:12;;;;;;;8.13;5.35;;;;;;;14.68;90.54;98769.06;4945725;28;20108;-74
2021/08/29 09:06:38;;;;;;;1.75;1.27;;;;;;;14.70;89.75;98772.47;4937625;29;20145;-75
2021/08/29 09:09:03;;;;;;;0.65;0.65;;;;;;;15.11;86.77;98769.25;4937567;29;20046;-75
2021/08/29 09:11:33;;;;;;;0.90;0.90;;;;;;;14.69;87.47;98775.97;4937398;29;20444;-75
2021/08/29 09:13:59;;;;;;;1.25;0.75;;;;;;;14.74;86.05;98781.88;4937411;29;20031;-75
2021/08/29 09:16:26;;;;;;;0.70;0.70;;;;;;;14.43;93.61;98780.31;4937419;29;20023;-75
2021/08/29 09:18:55;;;;;;;0.70;0.70;;;;;;;14.80;91.31;98766.91;4937483;29;20042;-75
2021/08/29 09:21:24;;;;;;;0.80;0.80;;;;;;;15.14;89.06;98770.91;4952001;28;20023;-75
2021/08/29 09:23:50;;;;;;;1.25;1.00;;;;;;;15.09;87.97;98776.28;4956586;28;20546;-75
2021/08/29 09:26:18;;;;;;;0.70;0.70;;;;;;;15.60;84.70;98769.16;4956520;28;20408;-76
2021/08/29 09:28:45;;;;;;;8.90;5.72;;;;;;;15.77;85.63;98768.56;4956411;28;20510;-75
2021/08/29 09:31:11;;;;;;;1.52;1.42;;;;;;;15.52;84.05;98773.81;4956018;28;20267;-75
2021/08/29 09:33:37;;;;;;;4.60;1.00;;;;;;;15.77;84.35;98763.34;4948105;28;20106;-75
2021/08/29 09:36:03;;;;;;;2.85;0.70;;;;;;;15.73;83.56;98769.59;4938803;28;20247;-75
2021/08/29 09:38:40;;;;;;;0.70;0.70;;;;;;;15.46;82.97;98777.53;4937187;29;20112;-76
2021/08/29 09:41:24;;;;;;;0.60;0.60;;;;;;;15.36;84.53;98763.13;4936859;29;20055;-75
2021/08/29 09:43:50;;;;;;;0.60;0.60;;;;;;;15.67;85.03;98758.47;4937046;29;20082;-75
2021/08/29 09:46:16;;;;;;;0.77;0.73;;;;;;;15.62;84.95;98764.75;4936796;29;20116;-75
2021/08/29 09:48:48;;;;;;;1.63;0.60;;;;;;;15.66;84.13;98762.00;4936925;29;20500;-76
2021/08/29 09:51:15;;;;;;;0.60;0.60;;;;;;;14.93;89.01;98759.47;4950235;28;20114;-75
2021/08/29 09:53:43;;;;;;;0.50;0.50;;;;;;;14.94;89.84;98761.19;4955501;28;20484;-76
2021/08/29 09:56:27;;;;;;;0.98;0.88;;;;;;;15.17;86.67;98755.97;4955803;28;20525;-75
2021/08/29 09:58:54;;;;;;;34.17;17.23;;;;;;;15.43;88.50;98759.38;4955843;28;20035;-76
2021/08/29 10:01:23;;;;;;;4.00;2.53;;;;;;;15.37;85.76;98762.19;4955410;28;20062;-76
2021/08/29 10:03:50;;;;;;;1.38;1.27;;;;;;;15.28;86.99;98759.94;4947727;28;20023;-75
2021/08/29 10:06:18;;;;;;;2.35;1.10;;;;;;;15.40;85.84;98756.88;4936556;29;20393;-75
2021/08/29 10:08:52;;;;;;;11.05;5.78;;;;;;;15.75;83.44;98759.91;4936550;29;20023;-77
2021/08/29 10:11:20;;;;;;;21.17;12.73;;;;;;;15.58;86.62;98757.94;4936162;29;20516;-77
2021/08/29 10:13:46;;;;;;;17.00;9.65;;;;;;;15.40;88.54;98764.72;4936313;29;20027;-76
2021/08/29 10:16:13;;;;;;;17.10;8.90;;;;;;;15.23;87.99;98769.69;4936367;29;20035;-75
2021/08/29 10:18:41;;;;;;;9.57;6.35;;;;;;;15.01;89.42;98761.81;4936283;29;20031;-75
2021/08/29 10:21:10;;;;;;;17.05;7.53;;;;;;;14.91;90.95;98766.50;4936169;29;20393;-76
2021/08/29 10:23:42;;;;;;;3.15;1.58;;;;;;;14.75;92.39;98767.97;4936153;29;20151;-76
2021/08/29 10:26:12;;;;;;;7.07;4.30;;;;;;;14.81;94.35;98766.00;4936346;29;20031;-76
2021/08/29 10:28:42;;;;;;;28.05;16.05;;;;;;;14.98;94.49;98761.91;4936100;29;20036;-75
2021/08/29 10:31:13;;;;;;;9.25;2.97;;;;;;;14.95;94.19;98760.28;4935954;29;20034;-76
2021/08/29 10:33:39;;;;;;;4.32;3.55;;;;;;;15.05;90.03;98764.25;4943665;29;20024;-76
2021/08/29 10:36:07;;;;;;;1.95;1.55;;;;;;;14.74;93.13;98763.63;4953592;29;20038;-76
2021/08/29 10:38:34;;;;;;;8.85;4.00;;;;;;;15.20;89.18;98760.22;4954662;28;20043;-76
2021/08/29 10:41:00;;;;;;;54.80;25.80;;;;;;;15.58;90.18;98753.56;4954444;28;20114;-75
2021/08/29 10:43:28;;;;;;;6.28;3.60;;;;;;;15.76;87.90;98756.38;4954523;28;20103;-75
2021/08/29 10:45:53;;;;;;;28.80;11.35;;;;;;;15.58;88.52;98756.19;4947295;28;20117;-75
2021/08/29 10:48:19;;;;;;;13.40;6.60;;;;;;;15.57;89.34;98757.09;4946069;29;20027;-76
2021/08/29 10:50:48;;;;;;;3.13;1.50;;;;;;;15.35;90.47;98756.19;4944840;28;20125;-76
2021/08/29 10:53:31;;;;;;;0.85;0.85;;;;;;;15.61;90.80;98752.56;4945742;29;20392;-76
2021/08/29 10:56:14;;;;;;;1.40;0.70;;;;;;;15.60;89.08;98756.09;4946211;29;20385;-75
2021/08/29 10:58:44;;;;;;;58.40;26.27;;;;;;;15.79;88.31;98751.06;4960834;28;20045;-76
2021/08/29 11:01:46;;;;;;;4.43;2.25;;;;;;;15.36;91.92;98757.88;4945546;28;20045;-76
2021/08/29 11:04:17;;;;;;;4.13;2.40;;;;;;;15.41;92.63;98755.97;4937593;28;20046;-75
2021/08/29 11:06:52;;;;;;;1.88;1.55;;;;;;;15.59;92.10;98755.25;4945292;28;20032;-76
2021/08/29 11:09:36;;;;;;;1.73;1.05;;;;;;;15.48;93.22;98757.44;4945793;28;20121;-76
2021/08/29 11:12:13;;;;;;;0.60;0.50;;;;;;;15.34;91.28;98755.34;4945727;28;20023;-76
2021/08/29 11:14:44;;;;;;;0.70;0.45;;;;;;;15.14;90.78;98763.06;4945769;28;20074;-76
2021/08/29 11:17:30;;;;;;;0.35;0.35;;;;;;;15.33;93.43;98752.81;4945938;28;20094;-76
2021/08/29 11:20:01;;;;;;;9.57;4.80;;;;;;;15.67;93.68;98750.63;4944523;28;20041;-76
2021/08/29 11:22:28;;;;;;;5.15;4.15;;;;;;;15.90;92.10;98738.41;4934768;28;20035;-76
2021/08/29 11:25:01;;;;;;;0.60;0.60;;;;;;;15.87;92.06;98744.63;4936666;28;20023;-76
2021/08/29 11:27:32;;;;;;;0.80;0.60;;;;;;;15.67;91.02;98750.63;4936232;29;20054;-76
2021/08/29 11:29:57;;;;;;;0.47;0.47;;;;;;;16.00;91.59;98744.94;4936056;29;20038;-76
2021/08/29 11:32:46;;;;;;;10.48;5.10;;;;;;;16.36;87.26;98739.97;4936337;28;20408;-76
2021/08/29 11:35:18;;;;;;;25.02;13.70;;;;;;;16.34;90.30;98743.56;4930949;28;20035;-76
2021/08/29 11:38:08;;;;;;;7.85;4.28;;;;;;;16.00;90.84;98750.19;4929908;29;20035;-78
2021/08/29 11:40:53;;;;;;;1.88;1.23;;;;;;;15.90;91.97;98743.63;4930030;28;20026;-78
2021/08/29 11:43:27;;;;;;;5.32;3.95;;;;;;;15.79;95.45;98740.59;4928951;29;20027;-78
2021/08/29 11:46:14;;;;;;;3.10;0.60;;;;;;;15.86;92.83;98747.31;4930263;29;20035;-77
2021/08/29 11:48:54;;;;;;;0.30;0.30;;;;;;;15.49;91.70;98748.69;4929191;29;20019;-77
2021/08/29 11:51:24;;;;;;;0.77;0.77;;;;;;;15.40;94.68;98743.81;4934552;29;20030;-78
2021/08/29 11:53:49;;;;;;;5.47;2.60;;;;;;;15.40;95.45;98743.81;4937924;29;20067;-78
2021/08/29 11:56:18;;;;;;;3.22;1.20;;;;;;;15.16;95.40;98746.44;4938766;28;20042;-78
2021/08/29 11:58:48;;;;;;;0.60;0.50;;;;;;;15.11;96.89;98748.38;4938837;28;20113;-78
2021/08/29 12:01:15;;;;;;;2.83;0.70;;;;;;;15.01;98.42;98747.00;4938582;28;20057;-79
2021/08/29 12:03:41;;;;;;;1.75;0.77;;;;;;;14.84;99.13;98749.34;4936791;28;20034;-79
2021/08/29 12:06:41;;;;;;;2.75;1.20;;;;;;;14.82;100.00;98745.97;4945165;29;20033;-79
2021/08/29 12:09:33;;;;;;;0.63;0.50;;;;;;;15.05;100.00;98745.16;4944179;28;20035;-79
2021/08/29 12:11:59;;;;;;;0.57;0.55;;;;;;;15.06;98.35;98739.84;4938737;29;20049;-79
2021/08/29 12:14:29;;;;;;;0.60;0.60;;;;;;;14.77;99.12;98742.66;4945415;29;20704;-78
2021/08/29 12:17:02;;;;;;;8.38;6.05;;;;;;;14.87;100.00;98739.66;4947089;28;20031;-75
2021/08/29 12:19:33;;;;;;;3.65;1.85;;;;;;;14.74;100.00;98737.56;4949062;29;20396;-78
2021/08/29 12:22:02;;;;;;;3.08;1.33;;;;;;;14.74;100.00;98737.56;4947320;28;20488;-78
2021/08/29 12:24:32;;;;;;;14.48;10.18;;;;;;;14.81;100.00;98744.28;4949049;28;20041;-78
2021/08/29 12:27:06;;;;;;;2.30;2.10;;;;;;;14.97;100.00;98742.81;4948954;29;20122;-78
2021/08/29 12:29:43;;;;;;;3.05;1.58;;;;;;;14.97;100.00;98734.13;4948809;29;20158;-78
2021/08/29 12:32:11;;;;;;;0.77;0.70;;;;;;;14.77;100.00;98742.66;4947012;28;20031;-78
2021/08/29 12:34:37;;;;;;;0.60;0.60;;;;;;;14.76;100.00;98740.97;4936574;29;20027;-78
2021/08/29 12:37:12;;;;;;;1.15;0.90;;;;;;;14.68;100.00;98740.38;4937386;28;20101;-78
2021/08/29 12:39:38;;;;;;;1.63;1.05;;;;;;;14.87;100.00;98738.81;4928848;28;20127;-78
2021/08/29 12:42:21;;;;;;;4.00;1.20;;;;;;;14.86;100.00;98742.34;4927948;28;20059;-78
2021/08/29 12:44:47;;;;;;;1.67;0.93;;;;;;;15.03;100.00;98739.97;4926712;29;20083;-78
2021/08/29 12:47:14;;;;;;;6.10;1.42;;;;;;;14.89;100.00;98737.00;4927119;29;20110;-78
2021/08/29 12:49:40;;;;;;;0.80;0.80;;;;;;;14.95;100.00;98742.03;4916918;29;20061;-78
2021/08/29 12:52:08;;;;;;;1.40;0.60;;;;;;;15.09;100.00;98742.38;4918561;28;21556;-78
2021/08/29 12:54:35;;;;;;;1.50;1.05;;;;;;;15.14;99.78;98742.19;4919599;29;20055;-78
2021/08/29 12:57:04;;;;;;;0.90;0.90;;;;;;;14.97;100.00;98740.19;4917396;29;20107;-78
2021/08/29 12:59:30;;;;;;;0.95;0.88;;;;;;;15.05;100.00;98738.16;4918015;29;20077;-78
2021/08/29 13:01:57;;;;;;;1.98;1.17;;;;;;;15.21;100.00;98738.44;4918413;28;20043;-71
2021/08/29 13:04:30;;;;;;;2.00;1.90;;;;;;;15.40;100.00;98728.16;4933043;29;20496;-73
2021/08/29 13:07:06;;;;;;;1.35;1.30;;;;;;;15.26;97.65;98725.22;4932850;28;20066;-73
2021/08/29 13:09:34;;;;;;;1.27;1.20;;;;;;;15.54;97.63;98730.22;4939327;29;20093;-73
2021/08/29 13:12:04;;;;;;;1.40;1.30;;;;;;;15.83;97.66;98721.28;4940500;28;20027;-73
2021/08/29 13:14:37;;;;;;;1.67;1.58;;;;;;;15.53;97.53;98729.38;4941460;29;20133;-80
2021/08/29 13:17:14;;;;;;;1.55;1.23;;;;;;;15.87;97.37;98722.88;4941788;29;20035;-81
2021/08/29 13:19:39;;;;;;;1.77;1.67;;;;;;;16.34;95.34;98720.03;4947803;29;20062;-82
2021/08/29 13:22:05;;;;;;;4.50;1.77;;;;;;;16.34;92.95;98718.28;4947824;28;20063;-82
2021/08/29 13:24:31;;;;;;;2.03;1.73;;;;;;;16.02;94.42;98713.53;4948176;29;20094;-80
2021/08/29 13:26:59;;;;;;;2.03;1.92;;;;;;;15.90;95.01;98720.09;4947927;29;20031;-80
2021/08/29 13:29:36;;;;;;;3.33;1.50;;;;;;;15.58;97.20;98717.00;4947069;28;20149;-80
2021/08/29 13:32:01;;;;;;;5.60;1.90;;;;;;;15.59;96.91;98715.22;4947538;28;20038;-77
2021/08/29 13:34:29;;;;;;;2.55;1.90;;;;;;;15.46;98.36;98717.47;4947629;28;20110;-77
2021/08/29 13:36:55;;;;;;;4.75;2.67;;;;;;;15.65;97.47;98717.63;4947606;29;20122;-76
2021/08/29 13:39:25;;;;;;;2.20;2.00;;;;;;;15.58;97.68;98726.59;4947661;29;20950;-76
2021/08/29 13:42:13;;;;;;;2.33;2.15;;;;;;;15.63;98.31;98717.69;4947271;28;20140;-76
2021/08/29 13:44:47;;;;;;;3.70;2.25;;;;;;;15.70;97.63;98725.28;4947506;28;20041;-77
2021/08/29 13:47:12;;;;;;;3.47;2.10;;;;;;;15.67;96.68;98724.50;4947604;28;20034;-77
2021/08/29 13:49:37;;;;;;;2.60;2.40;;;;;;;15.37;98.21;98730.88;4947404;29;20409;-76
2021/08/29 13:52:03;;;;;;;6.25;3.53;;;;;;;15.31;100.00;98723.28;4947351;28;20038;-78
2021/08/29 13:54:29;;;;;;;3.92;3.38;;;;;;;15.22;100.00;98713.19;4947497;29;20066;-79
2021/08/29 13:56:54;;;;;;;4.45;4.05;;;;;;;15.07;100.00;98730.25;4947321;28;20087;-73
2021/08/29 13:59:19;;;;;;;5.43;4.28;;;;;;;14.84;100.00;98733.72;4947366;29;20024;-75
2021/08/29 14:01:45;;;;;;;5.88;4.20;;;;;;;14.81;100.00;98729.47;4946689;28;20094;-75
2021/08/29 14:04:10;;;;;;;4.90;4.25;;;;;;;14.80;100.00;98729.53;4946947;29;20030;-73
2021/08/29 14:06:35;;;;;;;4.93;4.43;;;;;;;14.69;100.00;98729.03;4947399;28;20059;-71
2021/08/29 14:09:01;;;;;;;4.90;4.50;;;;;;;14.96;100.00;98728.06;4947101;29;20065;-78
2021/08/29 14:11:26;;;;;;;5.18;4.68;;;;;;;15.01;100.00;98726.13;4946868;28;20113;-73
2021/08/29 14:13:51;;;;;;;6.20;4.32;;;;;;;15.10;100.00;98725.78;4945543;29;20023;-74
2021/08/29 14:16:17;;;;;;;5.00;4.50;;;;;;;14.99;100.00;98730.56;4947142;29;20114;-71
2021/08/29 14:18:42;;;;;;;8.93;8.02;;;;;;;15.05;100.00;98726.88;4946995;28;20038;-76
2021/08/29 14:21:08;;;;;;;4.93;4.53;;;;;;;14.90;100.00;98728.28;4946760;28;20038;-72
2021/08/29 14:23:33;;;;;;;5.05;4.55;;;;;;;14.89;100.00;98729.16;4946815;29;20027;-72
2021/08/29 14:25:58;;;;;;;5.10;4.60;;;;;;;14.84;100.00;98724.16;4947254;28;21417;-73
2021/08/29 14:28:24;;;;;;;5.57;5.03;;;;;;;14.93;100.00;98727.31;4947043;29;21475;-72
2021/08/29 14:30:49;;;;;;;6.03;4.35;;;;;;;14.96;100.00;98728.06;4947193;28;20058;-73
2021/08/29 14:33:14;;;;;;;9.82;8.30;;;;;;;15.05;100.00;98721.66;4946792;28;20054;-75
2021/08/29 14:35:40;;;;;;;4.95;4.55;;;;;;;15.04;100.00;98720.81;4946659;28;20031;-75
2021/08/29 14:38:05;;;;;;;5.55;4.90;;;;;;;15.21;100.00;98716.72;4946571;29;20484;-73
2021/08/29 14:40:31;;;;;;;5.05;4.55;;;;;;;15.28;100.00;98718.16;4946600;28;20031;-73
2021/08/29 14:42:56;;;;;;;7.30;4.22;;;;;;;15.11;100.00;98717.03;4946288;28;20027;-73
2021/08/29 14:45:22;;;;;;;5.05;4.63;;;;;;;15.17;100.00;98714.19;4946581;29;20029;-73
2021/08/29 14:47:48;;;;;;;5.07;4.57;;;;;;;14.87;100.00;98717.97;4946283;29;20485;-73
2021/08/29 14:50:14;;;;;;;4.60;4.20;;;;;;;15.10;100.00;98719.72;4946224;28;20082;-73
2021/08/29 14:52:39;;;;;;;4.82;4.38;;;;;;;15.13;100.00;98719.59;4946140;29;20031;-73
2021/08/29 14:55:05;;;;;;;4.32;4.03;;;;;;;15.22;100.00;98716.63;4946248;28;19928;-73
2021/08/29 14:57:31;;;;;;;4.97;4.53;;;;;;;15.24;100.00;98716.59;4946414;28;21313;-73
2021/08/29 14:59:57;;;;;;;4.53;4.10;;;;;;;15.10;100.00;98715.34;4946166;29;20062;-73
2021/08/29 15:02:22;;;;;;;5.85;4.97;;;;;;;15.17;100.00;98708.13;4945731;29;21266;-73
2021/08/29 15:04:48;;;;;;;4.18;3.88;;;;;;;15.10;100.00;98710.13;4946027;28;20035;-73
2021/08/29 15:07:13;;;;;;;4.45;4.05;;;;;;;15.06;100.00;98712.91;4946089;28;20030;-73
2021/08/29 15:09:39;;;;;;;4.60;3.72;;;;;;;14.97;100.00;98708.88;4946065;29;20429;-73
2021/08/29 15:12:05;;;;;;;12.05;8.82;;;;;;;14.89;100.00;98716.13;4945780;29;20114;-73
2021/08/29 15:14:30;;;;;;;3.53;3.25;;;;;;;14.73;100.00;98725.41;4945830;29;20655;-74
2021/08/29 15:16:56;;;;;;;4.05;3.75;;;;;;;14.86;100.00;98721.47;4946050;28;20039;-73
2021/08/29 15:19:21;;;;;;;4.20;3.75;;;;;;;14.87;100.00;98721.41;4945853;28;20027;-73
2021/08/29 15:21:47;;;;;;;4.35;3.53;;;;;;;14.75;100.00;98718.41;4945750;28;20365;-73
2021/08/29 15:24:12;;;;;;;3.75;3.35;;;;;;;14.64;100.00;98716.16;4945869;29;20066;-73
2021/08/29 15:26:37;;;;;;;4.05;3.63;;;;;;;14.62;100.00;98712.78;4946290;28;20165;-72
2021/08/29 15:29:03;;;;;;;4.07;3.63;;;;;;;14.59;100.00;98718.94;4946317;28;20031;-72
2021/08/29 15:31:30;;;;;;;3.95;3.33;;;;;;;14.62;100.00;98721.44;4945821;29;20031;-72
2021/08/29 15:33:55;;;;;;;3.88;3.47;;;;;;;14.75;100.00;98718.41;4945614;29;20027;-73
2021/08/29 15:36:20;;;;;;;4.65;3.55;;;;;;;14.61;100.00;98717.13;4946139;28;20732;-73
2021/08/29 15:38:46;;;;;;;4.57;4.15;;;;;;;14.63;100.00;98717.06;4945938;28;20781;-72
2021/08/29 15:41:15;;;;;;;4.10;3.65;;;;;;;14.76;100.00;98717.50;4945472;29;20515;-72
2021/08/29 15:43:41;;;;;;;4.82;4.15;;;;;;;14.67;100.00;98715.22;4945812;29;20028;-72
2021/08/29 15:46:06;;;;;;;7.93;3.78;;;;;;;14.66;100.00;98714.38;4945361;29;20042;-74
2021/08/29 15:48:31;;;;;;;5.25;4.20;;;;;;;14.65;100.00;98718.75;4945564;29;20050;-75
2021/08/29 15:50:57;;;;;;;4.07;3.78;;;;;;;14.69;100.00;98723.81;4944866;28;20118;-75
2021/08/29 15:53:23;;;;;;;4.13;3.60;;;;;;;14.59;100.00;98716.31;4944066;28;20031;-75
2021/08/29 15:55:49;;;;;;;3.92;3.53;;;;;;;14.58;100.00;98722.44;4945354;29;20113;-75
2021/08/29 15:58:14;;;;;;;4.10;3.70;;;;;;;14.62;100.00;98720.59;4945482;28;20110;-75
2021/08/29 16:00:39;;;;;;;3.70;3.40;;;;;;;14.52;100.00;98716.63;4945222;28;20046;-75
2021/08/29 16:03:05;;;;;;;5.00;3.58;;;;;;;14.48;100.00;98721.06;4943716;29;20027;-75
2021/08/29 16:05:32;;;;;;;4.32;3.78;;;;;;;14.39;100.00;98718.75;4945604;28;20030;-73
2021/08/29 16:07:58;;;;;;;3.50;3.20;;;;;;;14.46;100.00;98716.81;4945744;29;20027;-73
2021/08/29 16:10:24;;;;;;;4.28;3.47;;;;;;;14.34;100.00;98713.69;4945306;29;20094;-72
2021/08/29 16:12:50;;;;;;;4.25;3.20;;;;;;;14.44;100.00;98714.22;4945201;29;20094;-72
2021/08/29 16:15:17;;;;;;;3.78;3.47;;;;;;;14.48;100.00;98715.84;4945778;28;20031;-73
2021/08/29 16:17:43;;;;;;;3.95;3.65;;;;;;;14.51;100.00;98714.91;4945260;29;20206;-72
2021/08/29 16:20:11;;;;;;;4.20;3.90;;;;;;;14.44;100.00;98713.38;4943838;28;20106;-73
2021/08/29 16:22:36;;;;;;;3.53;3.22;;;;;;;14.22;100.00;98715.88;4945111;29;20135;-73
2021/08/29 16:25:03;;;;;;;5.85;4.32;;;;;;;14.24;100.00;98716.66;4945226;28;20471;-74
2021/08/29 16:27:29;;;;;;;8.65;6.78;;;;;;;14.24;100.00;98711.47;4945135;29;20035;-72
2021/08/29 16:29:57;;;;;;;13.38;5.13;;;;;;;14.15;100.00;98710.84;4945316;28;20101;-71
2021/08/29 16:32:27;;;;;;;4.43;4.03;;;;;;;14.20;100.00;98715.06;4944917;28;20113;-72
2021/08/29 16:34:52;;;;;;;13.82;9.02;;;;;;;14.20;100.00;98720.28;4944983;29;20035;-72
2021/08/29 16:37:18;;;;;;;19.55;15.38;;;;;;;14.26;100.00;98713.09;4945372;29;20516;-73
2021/08/29 16:39:44;;;;;;;5.47;5.07;;;;;;;14.34;100.00;98713.69;4945366;28;20027;-73
2021/08/29 16:42:09;;;;;;;4.93;4.50;;;;;;;14.45;100.00;98713.31;4945092;28;20031;-73
2021/08/29 16:44:36;;;;;;;8.32;6.57;;;;;;;14.25;100.00;98715.75;4944939;28;20518;-73
2021/08/29 16:47:01;;;;;;;9.93;6.63;;;;;;;14.27;100.00;98713.97;4945041;29;20031;-75
2021/08/29 16:49:27;;;;;;;7.68;5.43;;;;;;;14.18;100.00;98714.28;4944923;29;20031;-74
2021/08/29 16:51:52;;;;;;;9.40;7.10;;;;;;;14.24;100.00;98714.06;4944602;28;20485;-70
2021/08/29 16:54:17;;;;;;;12.32;7.25;;;;;;;14.30;100.00;98713.84;4944842;29;20055;-74
2021/08/29 16:56:43;;;;;;;13.48;7.47;;;;;;;14.25;100.00;98713.16;4943652;28;20035;-74
2021/08/29 16:59:09;;;;;;;14.90;7.55;;;;;;;14.27;100.00;98711.38;4943595;29;20111;-77
2021/08/29 17:01:36;;;;;;;16.70;7.88;;;;;;;14.28;100.00;98707.84;4944690;28;20039;-77
2021/08/29 17:04:01;;;;;;;9.98;6.30;;;;;;;14.26;100.00;98714.84;4946384;28;20039;-76
2021/08/29 17:06:27;;;;;;;25.33;10.35;;;;;;;14.29;100.00;98709.53;4948384;29;20053;-76
2021/08/29 17:08:52;;;;;;;13.25;9.02;;;;;;;14.23;100.00;98714.97;4948192;29;20035;-75
2021/08/29 17:11:18;;;;;;;9.73;7.35;;;;;;;14.15;100.00;98708.25;4948204;28;20073;-74
2021/08/29 17:13:44;;;;;;;10.63;7.32;;;;;;;14.12;100.00;98703.16;4948620;29;20023;-75
2021/08/29 17:16:09;;;;;;;8.65;7.68;;;;;;;14.09;100.00;98692.81;4947990;29;20057;-73
2021/08/29 17:18:34;;;;;;;10.55;8.32;;;;;;;14.20;100.00;98699.44;4948227;29;20380;-77
2021/08/29 17:21:07;;;;;;;11.73;8.50;;;;;;;14.18;100.00;98704.69;4947907;28;20039;-70
2021/08/29 17:23:32;;;;;;;12.15;8.55;;;;;;;14.15;100.00;98707.41;4948073;28;20023;-72
2021/08/29 17:25:58;;;;;;;11.57;8.90;;;;;;;14.18;100.00;98706.47;4947953;28;20054;-71
2021/08/29 17:28:24;;;;;;;11.18;8.77;;;;;;;14.17;100.00;98713.44;4948076;28;20023;-72
2021/08/29 17:30:49;;;;;;;16.83;9.60;;;;;;;14.23;100.00;98720.19;4948091;28;20054;-73
2021/08/29 17:33:15;;;;;;;9.65;8.65;;;;;;;14.11;100.00;98727.47;4947514;29;20125;-77
2021/08/29 17:35:40;;;;;;;10.18;8.35;;;;;;;14.10;100.00;98725.78;4947814;29;20110;-73
2021/08/29 17:38:05;;;;;;;9.73;8.00;;;;;;;14.12;100.00;98724.00;4947643;29;20116;-73
2021/08/29 17:40:31;;;;;;;10.18;9.07;;;;;;;13.97;100.00;98729.69;4947678;28;20035;-76
2021/08/29 17:42:56;;;;;;;14.05;10.43;;;;;;;14.09;100.00;98731.06;4949098;29;20023;-72
2021/08/29 17:45:22;;;;;;;16.50;10.05;;;;;;;14.07;100.00;98733.72;4947770;29;20035;-73
2021/08/29 17:47:47;;;;;;;15.10;10.00;;;;;;;14.08;100.00;98732.81;4947675;28;20055;-79
2021/08/29 17:50:13;;;;;;;14.05;9.55;;;;;;;14.02;100.00;98734.75;4947502;28;20034;-73
2021/08/29 17:52:38;;;;;;;11.38;9.82;;;;;;;13.98;100.00;98735.78;4947363;28;20673;-79
2021/08/29 17:55:04;;;;;;;14.82;10.32;;;;;;;14.03;100.00;98734.72;4946082;28;20066;-79
2021/08/29 17:57:29;;;;;;;14.38;9.40;;;;;;;14.02;100.00;98730.41;4947358;28;20035;-79
2021/08/29 17:59:55;;;;;;;9.88;8.75;;;;;;;14.03;100.00;98732.13;4947438;28;20605;-74
2021/08/29 18:02:22;;;;;;;12.02;9.55;;;;;;;14.03;100.00;98734.72;4947114;28;20122;-74
2021/08/29 18:04:49;;;;;;;12.10;10.15;;;;;;;13.84;100.00;98728.41;4947213;29;20019;-73
2021/08/29 18:07:15;;;;;;;14.35;11.25;;;;;;;13.79;100.00;98741.56;4947098;29;20118;-74
2021/08/29 18:09:40;;;;;;;14.25;9.70;;;;;;;14.11;100.00;98735.31;4949201;29;20036;-74
2021/08/29 18:12:07;;;;;;;10.98;9.80;;;;;;;13.93;100.00;98743.75;4947769;28;20031;-75
2021/08/29 18:14:32;;;;;;;13.35;8.70;;;;;;;13.93;100.00;98735.94;4946410;28;20972;-74
2021/08/29 18:16:57;;;;;;;12.18;9.82;;;;;;;14.10;100.00;98741.41;4946586;29;20113;-75
2021/08/29 18:19:23;;;;;;;12.27;9.05;;;;;;;14.07;100.00;98740.66;4946873;29;20027;-75
2021/08/29 18:21:48;;;;;;;12.27;10.02;;;;;;;14.00;100.00;98741.78;4945224;28;20033;-75
2021/08/29 18:24:13;;;;;;;14.82;9.40;;;;;;;14.01;100.00;98741.72;4902074;28;20039;-74
2021/08/29 18:26:39;;;;;;;10.63;8.73;;;;;;;13.98;100.00;98741.84;4924122;29;20520;-76
2021/08/29 18:29:08;;;;;;;15.57;10.25;;;;;;;13.90;100.00;98749.03;4921665;29;20607;-74